sensor_id;sensor_type;location;lat;lon;timestamp;P1;durP1;ratioP1;P2;durP2;ratioP2
57701;SDS011;43534;43.636;1.518;2022-07-05T00:00:34;11.17;;;2.33;;
57701;SDS011;43534;43.636;1.518;2022-07-05T00:02:59;7.87;;;1.70;;
57701;SDS011;43534;43.636;1.518;2022-07-05T00:05:24;11.53;;;2.00;;
57701;SDS011;43534;43.636;1.518;2022-07-05T00:07:50;10.03;;;2.30;;
57701;SDS011;43534;43.636;1.518;2022-07-05T00:10:15;8.03;;;2.50;;
57701;SDS011;43534;43.636;1.518;2022-07-05T00:12:40;8.10;;;2.70;;
57701;SDS011;43534;43.636;1.518;2022-07-05T00:15:05;7.00;;;2.13;;
57701;SDS011;43534;43.636;1.518;2022-07-05T00:17:31;10.25;;;2.55;;
57701;SDS011;43534;43.636;1.518;2022-07-05T00:19:56;11.60;;;2.65;;
57701;SDS011;43534;43.636;1.518;2022-07-05T00:22:21;12.27;;;2.30;;
57701;SDS011;43534;43.636;1.518;2022-07-05T00:24:47;8.50;;;2.53;;
57701;SDS011;43534;43.636;1.518;2022-07-05T00:27:12;4.30;;;2.10;;
57701;SDS011;43534;43.636;1.518;2022-07-05T00:29:37;5.80;;;1.97;;
57701;SDS011;43534;43.636;1.518;2022-07-05T00:32:02;7.50;;;2.00;;
57701;SDS011;43534;43.636;1.518;2022-07-05T00:34:28;7.18;;;2.03;;
57701;SDS011;43534;43.636;1.518;2022-07-05T00:36:53;7.73;;;2.03;;
57701;SDS011;43534;43.636;1.518;2022-07-05T00:39:18;7.72;;;2.10;;
57701;SDS011;43534;43.636;1.518;2022-07-05T00:41:44;8.38;;;3.17;;
57701;SDS011;43534;43.636;1.518;2022-07-05T00:44:09;8.83;;;2.70;;
57701;SDS011;43534;43.636;1.518;2022-07-05T00:46:35;7.22;;;1.95;;
57701;SDS011;43534;43.636;1.518;2022-07-05T00:49:01;13.40;;;2.95;;
57701;SDS011;43534;43.636;1.518;2022-07-05T00:51:28;7.05;;;1.95;;
57701;SDS011;43534;43.636;1.518;2022-07-05T00:53:54;4.93;;;1.70;;
57701;SDS011;43534;43.636;1.518;2022-07-05T00:56:20;6.47;;;2.13;;
57701;SDS011;43534;43.636;1.518;2022-07-05T00:58:45;6.97;;;2.17;;
57701;SDS011;43534;43.636;1.518;2022-07-05T01:01:11;9.57;;;2.37;;
57701;SDS011;43534;43.636;1.518;2022-07-05T01:03:36;10.27;;;2.55;;
57701;SDS011;43534;43.636;1.518;2022-07-05T01:06:02;17.65;;;2.40;;
57701;SDS011;43534;43.636;1.518;2022-07-05T01:08:30;8.75;;;1.92;;
57701;SDS011;43534;43.636;1.518;2022-07-05T01:10:57;9.00;;;2.42;;
57701;SDS011;43534;43.636;1.518;2022-07-05T01:13:22;9.17;;;1.93;;
57701;SDS011;43534;43.636;1.518;2022-07-05T01:15:47;5.80;;;2.25;;
57701;SDS011;43534;43.636;1.518;2022-07-05T01:18:13;11.40;;;3.22;;
57701;SDS011;43534;43.636;1.518;2022-07-05T01:20:38;7.80;;;2.80;;
57701;SDS011;43534;43.636;1.518;2022-07-05T01:23:04;11.20;;;3.13;;
57701;SDS011;43534;43.636;1.518;2022-07-05T01:25:29;12.93;;;3.03;;
57701;SDS011;43534;43.636;1.518;2022-07-05T01:27:56;10.00;;;2.92;;
57701;SDS011;43534;43.636;1.518;2022-07-05T01:30:22;16.38;;;3.50;;
57701;SDS011;43534;43.636;1.518;2022-07-05T01:32:47;8.65;;;2.67;;
57701;SDS011;43534;43.636;1.518;2022-07-05T01:35:13;12.25;;;3.83;;
57701;SDS011;43534;43.636;1.518;2022-07-05T01:37:39;10.32;;;2.50;;
57701;SDS011;43534;43.636;1.518;2022-07-05T01:40:04;9.55;;;2.33;;
57701;SDS011;43534;43.636;1.518;2022-07-05T01:42:30;7.55;;;2.00;;
57701;SDS011;43534;43.636;1.518;2022-07-05T01:44:56;7.45;;;2.38;;
57701;SDS011;43534;43.636;1.518;2022-07-05T01:47:21;8.93;;;2.60;;
57701;SDS011;43534;43.636;1.518;2022-07-05T01:49:47;5.47;;;2.55;;
57701;SDS011;43534;43.636;1.518;2022-07-05T01:52:13;6.18;;;2.50;;
57701;SDS011;43534;43.636;1.518;2022-07-05T01:54:39;10.73;;;2.22;;
57701;SDS011;43534;43.636;1.518;2022-07-05T01:57:05;7.00;;;2.00;;
57701;SDS011;43534;43.636;1.518;2022-07-05T01:59:34;8.80;;;2.15;;
57701;SDS011;43534;43.636;1.518;2022-07-05T02:01:59;6.13;;;2.45;;
57701;SDS011;43534;43.636;1.518;2022-07-05T02:04:25;13.67;;;2.57;;
57701;SDS011;43534;43.636;1.518;2022-07-05T02:06:50;8.57;;;2.43;;
57701;SDS011;43534;43.636;1.518;2022-07-05T02:09:15;9.98;;;2.72;;
57701;SDS011;43534;43.636;1.518;2022-07-05T02:11:41;8.10;;;2.50;;
57701;SDS011;43534;43.636;1.518;2022-07-05T02:14:06;12.57;;;2.70;;
57701;SDS011;43534;43.636;1.518;2022-07-05T02:16:31;8.50;;;2.70;;
57701;SDS011;43534;43.636;1.518;2022-07-05T02:18:56;9.30;;;2.43;;
57701;SDS011;43534;43.636;1.518;2022-07-05T02:21:22;10.63;;;3.17;;
57701;SDS011;43534;43.636;1.518;2022-07-05T02:23:47;11.00;;;3.33;;
57701;SDS011;43534;43.636;1.518;2022-07-05T02:26:12;12.52;;;2.53;;
57701;SDS011;43534;43.636;1.518;2022-07-05T02:28:38;12.27;;;2.23;;
57701;SDS011;43534;43.636;1.518;2022-07-05T02:31:03;10.80;;;3.30;;
57701;SDS011;43534;43.636;1.518;2022-07-05T02:33:28;10.13;;;2.50;;
57701;SDS011;43534;43.636;1.518;2022-07-05T02:35:54;6.17;;;2.27;;
57701;SDS011;43534;43.636;1.518;2022-07-05T02:38:19;5.83;;;1.93;;
57701;SDS011;43534;43.636;1.518;2022-07-05T02:40:44;8.73;;;2.33;;
57701;SDS011;43534;43.636;1.518;2022-07-05T02:43:09;7.60;;;2.83;;
57701;SDS011;43534;43.636;1.518;2022-07-05T02:45:35;7.67;;;2.30;;
57701;SDS011;43534;43.636;1.518;2022-07-05T02:48:00;11.07;;;3.20;;
57701;SDS011;43534;43.636;1.518;2022-07-05T02:50:25;7.80;;;2.30;;
57701;SDS011;43534;43.636;1.518;2022-07-05T02:52:50;10.80;;;2.50;;
57701;SDS011;43534;43.636;1.518;2022-07-05T02:55:16;11.90;;;2.17;;
57701;SDS011;43534;43.636;1.518;2022-07-05T02:57:41;12.43;;;3.00;;
57701;SDS011;43534;43.636;1.518;2022-07-05T03:00:06;13.73;;;3.17;;
57701;SDS011;43534;43.636;1.518;2022-07-05T03:02:32;7.93;;;2.47;;
57701;SDS011;43534;43.636;1.518;2022-07-05T03:04:57;7.43;;;2.57;;
57701;SDS011;43534;43.636;1.518;2022-07-05T03:07:22;6.72;;;2.17;;
57701;SDS011;43534;43.636;1.518;2022-07-05T03:09:48;12.53;;;2.83;;
57701;SDS011;43534;43.636;1.518;2022-07-05T03:12:13;6.23;;;2.63;;
57701;SDS011;43534;43.636;1.518;2022-07-05T03:14:38;8.40;;;2.42;;
57701;SDS011;43534;43.636;1.518;2022-07-05T03:17:03;6.97;;;2.60;;
57701;SDS011;43534;43.636;1.518;2022-07-05T03:19:29;11.27;;;2.80;;
57701;SDS011;43534;43.636;1.518;2022-07-05T03:21:54;13.20;;;3.47;;
57701;SDS011;43534;43.636;1.518;2022-07-05T03:24:19;8.98;;;3.20;;
57701;SDS011;43534;43.636;1.518;2022-07-05T03:26:44;10.97;;;2.97;;
57701;SDS011;43534;43.636;1.518;2022-07-05T03:29:10;9.27;;;3.03;;
57701;SDS011;43534;43.636;1.518;2022-07-05T03:31:35;11.87;;;2.77;;
57701;SDS011;43534;43.636;1.518;2022-07-05T03:34:00;10.82;;;3.30;;
57701;SDS011;43534;43.636;1.518;2022-07-05T03:36:26;7.13;;;3.05;;
57701;SDS011;43534;43.636;1.518;2022-07-05T03:38:51;9.23;;;3.25;;
57701;SDS011;43534;43.636;1.518;2022-07-05T03:41:16;8.73;;;2.60;;
57701;SDS011;43534;43.636;1.518;2022-07-05T03:43:41;6.57;;;2.95;;
57701;SDS011;43534;43.636;1.518;2022-07-05T03:46:07;11.83;;;2.80;;
57701;SDS011;43534;43.636;1.518;2022-07-05T03:48:32;7.13;;;2.57;;
57701;SDS011;43534;43.636;1.518;2022-07-05T03:50:58;9.90;;;2.80;;
57701;SDS011;43534;43.636;1.518;2022-07-05T03:53:23;12.00;;;3.60;;
57701;SDS011;43534;43.636;1.518;2022-07-05T03:55:48;6.65;;;2.80;;
57701;SDS011;43534;43.636;1.518;2022-07-05T03:58:14;13.23;;;3.27;;
57701;SDS011;43534;43.636;1.518;2022-07-05T04:00:39;6.53;;;3.20;;
57701;SDS011;43534;43.636;1.518;2022-07-05T04:03:04;18.03;;;3.83;;
57701;SDS011;43534;43.636;1.518;2022-07-05T04:05:29;8.90;;;3.67;;
57701;SDS011;43534;43.636;1.518;2022-07-05T04:07:55;5.05;;;3.35;;
57701;SDS011;43534;43.636;1.518;2022-07-05T04:10:21;15.30;;;4.70;;
57701;SDS011;43534;43.636;1.518;2022-07-05T04:12:46;15.10;;;5.03;;
57701;SDS011;43534;43.636;1.518;2022-07-05T04:15:12;11.23;;;5.18;;
57701;SDS011;43534;43.636;1.518;2022-07-05T04:17:50;9.10;;;4.30;;
57701;SDS011;43534;43.636;1.518;2022-07-05T04:20:15;10.93;;;4.70;;
57701;SDS011;43534;43.636;1.518;2022-07-05T04:22:41;10.57;;;5.00;;
57701;SDS011;43534;43.636;1.518;2022-07-05T04:25:06;9.18;;;5.38;;
57701;SDS011;43534;43.636;1.518;2022-07-05T04:27:41;9.23;;;4.68;;
57701;SDS011;43534;43.636;1.518;2022-07-05T04:30:07;9.80;;;3.80;;
57701;SDS011;43534;43.636;1.518;2022-07-05T04:32:33;10.00;;;3.47;;
57701;SDS011;43534;43.636;1.518;2022-07-05T04:34:58;15.73;;;6.25;;
57701;SDS011;43534;43.636;1.518;2022-07-05T04:37:24;8.37;;;5.27;;
57701;SDS011;43534;43.636;1.518;2022-07-05T04:39:49;18.57;;;6.53;;
57701;SDS011;43534;43.636;1.518;2022-07-05T04:42:14;11.80;;;5.93;;
57701;SDS011;43534;43.636;1.518;2022-07-05T04:44:39;12.53;;;6.70;;
57701;SDS011;43534;43.636;1.518;2022-07-05T04:47:05;13.90;;;5.97;;
57701;SDS011;43534;43.636;1.518;2022-07-05T04:49:30;10.77;;;5.03;;
57701;SDS011;43534;43.636;1.518;2022-07-05T04:51:55;12.33;;;6.37;;
57701;SDS011;43534;43.636;1.518;2022-07-05T04:54:20;8.60;;;5.57;;
57701;SDS011;43534;43.636;1.518;2022-07-05T04:56:46;10.73;;;6.00;;
57701;SDS011;43534;43.636;1.518;2022-07-05T04:59:11;14.27;;;6.80;;
57701;SDS011;43534;43.636;1.518;2022-07-05T05:01:36;11.37;;;6.27;;
57701;SDS011;43534;43.636;1.518;2022-07-05T05:04:01;14.47;;;6.80;;
57701;SDS011;43534;43.636;1.518;2022-07-05T05:06:27;17.17;;;6.10;;
57701;SDS011;43534;43.636;1.518;2022-07-05T05:08:52;19.13;;;6.47;;
57701;SDS011;43534;43.636;1.518;2022-07-05T05:11:17;14.70;;;6.57;;
57701;SDS011;43534;43.636;1.518;2022-07-05T05:13:42;15.97;;;6.27;;
57701;SDS011;43534;43.636;1.518;2022-07-05T05:16:10;10.50;;;6.22;;
57701;SDS011;43534;43.636;1.518;2022-07-05T05:18:35;10.02;;;6.18;;
57701;SDS011;43534;43.636;1.518;2022-07-05T05:21:00;23.40;;;6.77;;
57701;SDS011;43534;43.636;1.518;2022-07-05T05:23:26;10.13;;;6.13;;
57701;SDS011;43534;43.636;1.518;2022-07-05T05:25:51;14.50;;;5.50;;
57701;SDS011;43534;43.636;1.518;2022-07-05T05:28:16;9.97;;;5.73;;
57701;SDS011;43534;43.636;1.518;2022-07-05T05:30:42;11.23;;;5.63;;
57701;SDS011;43534;43.636;1.518;2022-07-05T05:33:07;10.03;;;5.47;;
57701;SDS011;43534;43.636;1.518;2022-07-05T05:35:32;11.00;;;4.83;;
57701;SDS011;43534;43.636;1.518;2022-07-05T05:37:57;11.50;;;5.47;;
57701;SDS011;43534;43.636;1.518;2022-07-05T05:40:23;7.05;;;4.63;;
57701;SDS011;43534;43.636;1.518;2022-07-05T05:42:49;16.23;;;5.47;;
57701;SDS011;43534;43.636;1.518;2022-07-05T05:45:15;9.75;;;5.05;;
57701;SDS011;43534;43.636;1.518;2022-07-05T05:50:09;9.50;;;5.68;;
57701;SDS011;43534;43.636;1.518;2022-07-05T05:52:34;10.47;;;5.90;;
57701;SDS011;43534;43.636;1.518;2022-07-05T05:54:59;11.97;;;4.70;;
57701;SDS011;43534;43.636;1.518;2022-07-05T05:57:24;11.00;;;4.60;;
57701;SDS011;43534;43.636;1.518;2022-07-05T05:59:50;11.30;;;5.17;;
57701;SDS011;43534;43.636;1.518;2022-07-05T06:02:15;15.50;;;4.50;;
57701;SDS011;43534;43.636;1.518;2022-07-05T06:04:40;16.30;;;5.10;;
57701;SDS011;43534;43.636;1.518;2022-07-05T06:07:05;11.10;;;4.93;;
57701;SDS011;43534;43.636;1.518;2022-07-05T06:09:31;14.53;;;5.70;;
57701;SDS011;43534;43.636;1.518;2022-07-05T06:11:56;13.13;;;5.47;;
57701;SDS011;43534;43.636;1.518;2022-07-05T06:14:21;12.70;;;4.40;;
57701;SDS011;43534;43.636;1.518;2022-07-05T06:16:46;9.77;;;3.93;;
57701;SDS011;43534;43.636;1.518;2022-07-05T06:19:12;7.30;;;3.67;;
57701;SDS011;43534;43.636;1.518;2022-07-05T06:21:37;25.00;;;11.73;;
57701;SDS011;43534;43.636;1.518;2022-07-05T06:24:02;19.23;;;13.13;;
57701;SDS011;43534;43.636;1.518;2022-07-05T06:26:27;31.75;;;19.10;;
57701;SDS011;43534;43.636;1.518;2022-07-05T06:28:53;14.37;;;5.10;;
